createdAt,value
2019-03-27T00:00:04.446Z,6.93
2019-03-27T00:02:30.777Z,6.86
2019-03-27T00:04:57.079Z,6.87
2019-03-27T00:07:23.412Z,6.86
2019-03-27T00:09:49.735Z,6.85
2019-03-27T00:12:16.044Z,6.86
2019-03-27T00:14:42.355Z,6.88
2019-03-27T00:17:08.954Z,6.86
2019-03-27T00:19:35.264Z,6.85
2019-03-27T00:22:01.575Z,6.85
2019-03-27T00:24:27.900Z,6.84
2019-03-27T00:26:54.220Z,6.85
2019-03-27T00:29:20.539Z,6.88
2019-03-27T00:31:46.942Z,6.83
2019-03-27T00:34:13.213Z,6.82
2019-03-27T00:36:39.523Z,6.81
2019-03-27T00:39:05.850Z,6.82
2019-03-27T00:41:32.156Z,6.82
2019-03-27T00:43:58.477Z,6.82
2019-03-27T00:46:24.785Z,6.81
2019-03-27T00:48:51.095Z,6.80
2019-03-27T00:51:17.444Z,6.78
2019-03-27T00:53:45.100Z,6.76
2019-03-27T00:56:10.275Z,6.75
2019-03-27T00:58:36.588Z,6.71
2019-03-27T01:01:02.903Z,6.73
2019-03-27T01:03:29.210Z,6.72
2019-03-27T01:05:55.518Z,6.74
2019-03-27T01:08:21.832Z,6.77
2019-03-27T01:10:48.158Z,6.80
2019-03-27T01:13:14.537Z,6.77
2019-03-27T01:15:40.877Z,6.76
2019-03-27T01:18:07.184Z,6.75
2019-03-27T01:20:33.513Z,6.72
2019-03-27T01:22:59.849Z,6.67
2019-03-27T01:25:26.172Z,6.66
2019-03-27T01:27:52.505Z,6.69
2019-03-27T01:30:18.800Z,6.72
2019-03-27T01:32:45.113Z,6.72
2019-03-27T01:35:11.425Z,6.70
2019-03-27T01:37:38.748Z,6.71
2019-03-27T01:40:05.067Z,6.69
2019-03-27T01:42:31.394Z,6.71
2019-03-27T01:44:57.704Z,6.73
2019-03-27T01:47:24.088Z,6.73
2019-03-27T01:49:50.403Z,6.67
2019-03-27T01:52:16.715Z,6.69
2019-03-27T01:54:43.027Z,6.64
2019-03-27T01:57:09.332Z,6.64
2019-03-27T01:59:35.645Z,6.63
2019-03-27T02:02:01.961Z,6.61
2019-03-27T02:04:28.273Z,6.66
2019-03-27T02:06:54.590Z,6.67
2019-03-27T02:09:20.899Z,6.70
2019-03-27T02:11:47.214Z,6.67
2019-03-27T02:14:13.525Z,6.62
2019-03-27T02:16:39.855Z,6.61
2019-03-27T02:19:06.161Z,6.61
2019-03-27T02:21:32.469Z,6.61
2019-03-27T02:23:58.782Z,6.59
2019-03-27T02:26:25.087Z,6.52
2019-03-27T02:28:51.396Z,6.52
2019-03-27T02:31:17.892Z,6.47
2019-03-27T02:33:44.274Z,6.42
2019-03-27T02:36:10.585Z,6.42
2019-03-27T02:38:36.906Z,6.41
2019-03-27T02:41:03.211Z,6.37
2019-03-27T02:43:29.516Z,6.33
2019-03-27T02:45:55.825Z,6.33
2019-03-27T02:48:22.137Z,6.31
2019-03-27T02:50:48.445Z,6.37
2019-03-27T02:53:14.758Z,6.33
2019-03-27T02:55:41.067Z,6.33
2019-03-27T02:58:07.369Z,6.35
2019-03-27T03:00:33.699Z,6.27
2019-03-27T03:02:59.989Z,6.18
2019-03-27T03:05:26.329Z,6.17
2019-03-27T03:07:52.628Z,6.15
2019-03-27T03:10:18.924Z,6.16
2019-03-27T03:12:45.233Z,6.08
2019-03-27T03:15:11.554Z,6.07
2019-03-27T03:17:38.110Z,6.11
2019-03-27T03:20:04.410Z,6.06
2019-03-27T03:22:30.739Z,6.03
2019-03-27T03:24:57.049Z,6.02
2019-03-27T03:27:23.359Z,5.95
2019-03-27T03:29:49.667Z,5.91
2019-03-27T03:32:15.977Z,5.91
2019-03-27T03:34:42.297Z,5.77
2019-03-27T03:37:08.593Z,5.74
2019-03-27T03:39:34.922Z,5.69
2019-03-27T03:42:01.243Z,5.66
2019-03-27T03:44:27.552Z,5.64
2019-03-27T03:46:59.920Z,5.65
2019-03-27T03:49:20.146Z,5.64
2019-03-27T03:51:46.448Z,5.61
2019-03-27T03:54:12.807Z,5.61
2019-03-27T03:56:39.071Z,5.60
2019-03-27T03:59:05.372Z,5.60
2019-03-27T04:01:31.683Z,5.52
2019-03-27T04:03:57.993Z,5.52
2019-03-27T04:06:24.329Z,5.53
2019-03-27T04:08:50.633Z,5.51
2019-03-27T04:11:16.935Z,5.47
2019-03-27T04:13:43.394Z,5.47
2019-03-27T04:16:09.553Z,5.46
2019-03-27T04:18:35.887Z,5.43
2019-03-27T04:21:02.247Z,5.38
2019-03-27T04:23:28.544Z,5.35
2019-03-27T04:26:09.267Z,5.34
2019-03-27T04:28:21.198Z,5.37
2019-03-27T04:30:47.504Z,5.39
2019-03-27T04:33:13.812Z,5.47
2019-03-27T04:35:40.115Z,5.54
2019-03-27T04:38:06.456Z,5.63
2019-03-27T04:40:32.766Z,5.71
2019-03-27T04:42:59.081Z,5.77
2019-03-27T04:45:25.395Z,5.91
2019-03-27T04:47:51.705Z,6.01
2019-03-27T04:50:18.017Z,6.03
2019-03-27T04:52:44.324Z,6.13
2019-03-27T04:55:10.634Z,6.37
2019-03-27T04:57:36.949Z,6.53
2019-03-27T05:00:03.279Z,6.52
2019-03-27T05:02:29.585Z,6.64
2019-03-27T05:04:55.898Z,6.72
2019-03-27T05:07:22.207Z,6.82
2019-03-27T05:09:48.513Z,6.69
2019-03-27T05:12:14.905Z,6.87
2019-03-27T05:14:41.182Z,7.18
2019-03-27T05:17:07.488Z,7.21
2019-03-27T05:19:33.837Z,7.18
2019-03-27T05:22:00.142Z,7.11
2019-03-27T05:24:26.473Z,7.23
2019-03-27T05:26:52.955Z,7.31
2019-03-27T05:29:19.262Z,7.47
2019-03-27T05:31:46.335Z,7.51
2019-03-27T05:34:12.661Z,7.48
2019-03-27T05:36:38.971Z,7.68
2019-03-27T05:39:05.281Z,8.11
2019-03-27T05:41:31.593Z,8.15
2019-03-27T05:43:58.071Z,7.96
2019-03-27T05:46:26.548Z,8.05
2019-03-27T05:48:50.685Z,8.26
2019-03-27T05:51:16.990Z,8.31
2019-03-27T05:53:43.296Z,8.48
2019-03-27T05:56:09.636Z,8.52
2019-03-27T05:58:35.995Z,8.54
2019-03-27T06:01:02.303Z,8.70
2019-03-27T06:03:28.607Z,8.62
2019-03-27T06:05:54.952Z,8.85
2019-03-27T06:08:21.252Z,8.81
2019-03-27T06:10:47.559Z,9.01
2019-03-27T06:13:13.898Z,9.13
2019-03-27T06:15:40.208Z,9.17
2019-03-27T06:18:12.969Z,9.61
2019-03-27T06:20:32.889Z,9.61
2019-03-27T06:22:59.197Z,9.70
2019-03-27T06:25:25.516Z,9.87
2019-03-27T06:27:51.926Z,10.11
2019-03-27T06:30:18.225Z,10.05
2019-03-27T06:32:44.572Z,9.94
2019-03-27T06:35:10.885Z,10.25
2019-03-27T06:37:37.202Z,10.23
2019-03-27T06:40:03.511Z,10.37
2019-03-27T06:42:30.083Z,10.26
2019-03-27T06:44:56.478Z,10.61
2019-03-27T06:47:22.789Z,10.74
2019-03-27T06:49:49.108Z,10.83
2019-03-27T06:52:15.417Z,11.12
2019-03-27T06:54:41.744Z,11.14
2019-03-27T06:57:08.059Z,10.92
2019-03-27T06:59:34.397Z,10.07
2019-03-27T07:02:00.701Z,9.87
2019-03-27T07:04:27.031Z,10.03
2019-03-27T07:06:53.327Z,9.98
2019-03-27T07:09:19.643Z,10.02
2019-03-27T07:11:45.957Z,10.08
2019-03-27T07:14:12.264Z,9.89
2019-03-27T07:16:38.594Z,9.79
2019-03-27T07:19:04.914Z,9.81
2019-03-27T07:21:31.227Z,9.64
2019-03-27T07:23:57.584Z,9.65
2019-03-27T07:26:23.895Z,9.87
2019-03-27T07:28:50.223Z,10.12
2019-03-27T07:31:16.527Z,10.18
2019-03-27T07:33:42.837Z,10.16
2019-03-27T07:36:09.146Z,10.01
2019-03-27T07:38:35.460Z,10.06
2019-03-27T07:41:01.762Z,9.88
2019-03-27T07:43:28.207Z,9.72
2019-03-27T07:45:54.506Z,9.78
2019-03-27T07:48:20.829Z,9.78
2019-03-27T07:50:47.130Z,9.97
2019-03-27T07:53:13.458Z,10.17
2019-03-27T07:55:39.838Z,9.99
2019-03-27T07:58:06.148Z,10.10
2019-03-27T08:00:32.468Z,10.38
2019-03-27T08:02:58.787Z,10.54
2019-03-27T08:05:25.216Z,10.60
2019-03-27T08:07:51.437Z,10.42
2019-03-27T08:10:17.748Z,10.22
2019-03-27T08:12:44.126Z,9.92
2019-03-27T08:15:10.428Z,9.86
2019-03-27T08:17:36.732Z,10.05
2019-03-27T08:20:03.039Z,10.28
2019-03-27T08:22:29.364Z,10.66
2019-03-27T08:24:55.666Z,10.54
2019-03-27T08:27:21.973Z,10.50
2019-03-27T08:29:48.290Z,10.45
2019-03-27T08:32:14.596Z,10.35
2019-03-27T08:34:40.910Z,10.95
2019-03-27T08:37:07.321Z,11.66
2019-03-27T08:39:33.620Z,12.56
2019-03-27T08:41:59.925Z,12.93
2019-03-27T08:44:26.238Z,12.91
2019-03-27T08:46:52.553Z,13.25
2019-03-27T08:49:22.290Z,13.53
2019-03-27T08:51:45.199Z,13.57
2019-03-27T08:54:11.504Z,13.66
2019-03-27T08:56:37.831Z,13.11
2019-03-27T08:59:04.136Z,13.03
2019-03-27T09:01:30.441Z,12.81
2019-03-27T09:03:56.752Z,12.96
2019-03-27T09:06:33.012Z,13.08
2019-03-27T09:08:49.376Z,12.96
2019-03-27T09:11:15.707Z,13.52
2019-03-27T09:13:42.024Z,13.06
2019-03-27T09:16:08.335Z,12.69
2019-03-27T09:18:34.644Z,13.10
2019-03-27T09:21:00.957Z,13.54
2019-03-27T09:23:27.259Z,13.63
2019-03-27T09:25:53.563Z,13.49
2019-03-27T09:28:19.878Z,13.39
2019-03-27T09:30:46.191Z,13.50
2019-03-27T09:33:12.526Z,13.46
2019-03-27T09:35:38.836Z,14.02
2019-03-27T09:38:05.160Z,14.14
2019-03-27T09:40:31.451Z,14.62
2019-03-27T09:42:57.759Z,14.85
2019-03-27T09:45:24.073Z,15.06
2019-03-27T09:47:50.396Z,14.92
2019-03-27T09:50:16.728Z,15.41
2019-03-27T09:52:43.053Z,15.72
2019-03-27T09:55:09.366Z,15.43
2019-03-27T09:57:35.668Z,15.70
2019-03-27T10:00:01.984Z,15.53
2019-03-27T10:02:28.296Z,15.42
2019-03-27T10:04:56.079Z,15.26
2019-03-27T10:07:20.908Z,15.65
2019-03-27T10:09:50.211Z,16.06
2019-03-27T10:12:13.523Z,15.67
2019-03-27T10:14:39.837Z,15.44
2019-03-27T10:17:06.184Z,15.43
2019-03-27T10:19:32.488Z,15.91
2019-03-27T10:21:58.794Z,15.43
2019-03-27T10:24:25.106Z,15.66
2019-03-27T10:26:51.419Z,15.85
2019-03-27T10:29:17.728Z,15.71
2019-03-27T10:31:44.038Z,15.47
2019-03-27T10:34:10.352Z,15.53
2019-03-27T10:36:36.661Z,16.22
2019-03-27T10:39:02.993Z,16.43
2019-03-27T10:41:29.378Z,16.36
2019-03-27T10:43:55.611Z,16.13
2019-03-27T10:46:21.986Z,16.14
2019-03-27T10:48:52.857Z,16.13
2019-03-27T10:51:14.582Z,16.45
2019-03-27T10:53:40.893Z,16.47
2019-03-27T10:56:07.201Z,16.08
2019-03-27T10:58:33.516Z,16.67
2019-03-27T11:00:59.816Z,17.07
2019-03-27T11:03:26.135Z,16.94
2019-03-27T11:05:52.428Z,16.94
2019-03-27T11:08:18.747Z,16.89
2019-03-27T11:10:45.055Z,16.70
2019-03-27T11:13:11.409Z,16.41
2019-03-27T11:15:37.717Z,16.41
2019-03-27T11:18:04.022Z,16.40
2019-03-27T11:20:31.500Z,16.93
2019-03-27T11:22:56.706Z,16.12
2019-03-27T11:25:23.029Z,16.75
2019-03-27T11:27:49.348Z,16.83
2019-03-27T11:30:15.662Z,16.79
2019-03-27T11:32:41.967Z,16.74
2019-03-27T11:35:08.310Z,16.94
2019-03-27T11:37:34.607Z,17.01
2019-03-27T11:40:00.913Z,16.80
2019-03-27T11:42:27.224Z,17.01
2019-03-27T11:44:53.529Z,17.08
2019-03-27T11:47:19.841Z,17.06
2019-03-27T11:49:46.149Z,16.96
2019-03-27T11:52:12.460Z,16.82
2019-03-27T11:54:39.108Z,17.02
2019-03-27T11:57:05.461Z,17.20
2019-03-27T11:59:31.769Z,16.98
2019-03-27T12:01:58.103Z,16.63
2019-03-27T12:04:24.412Z,16.84
2019-03-27T12:06:50.720Z,16.97
2019-03-27T12:09:17.093Z,16.82
2019-03-27T12:11:43.349Z,16.89
2019-03-27T12:14:12.169Z,17.12
2019-03-27T12:16:35.964Z,17.22
2019-03-27T12:19:02.393Z,17.23
2019-03-27T12:21:28.727Z,17.21
2019-03-27T12:23:55.033Z,17.19
2019-03-27T12:26:21.355Z,17.03
2019-03-27T12:28:47.659Z,17.10
2019-03-27T12:31:13.970Z,16.96
2019-03-27T12:33:40.272Z,17.29
2019-03-27T12:36:06.607Z,17.44
2019-03-27T12:38:32.959Z,17.75
2019-03-27T12:40:59.345Z,17.65
2019-03-27T12:43:25.642Z,17.55
2019-03-27T12:45:51.949Z,16.93
2019-03-27T12:48:18.265Z,17.26
2019-03-27T12:50:44.641Z,17.40
2019-03-27T12:53:10.889Z,17.15
2019-03-27T12:55:37.191Z,16.99
2019-03-27T12:58:03.565Z,16.63
2019-03-27T13:00:29.873Z,16.05
2019-03-27T13:02:56.181Z,15.78
2019-03-27T13:05:22.511Z,15.66
2019-03-27T13:07:50.283Z,15.62
2019-03-27T13:10:15.140Z,15.60
2019-03-27T13:12:41.453Z,15.73
2019-03-27T13:15:07.761Z,15.58
2019-03-27T13:17:34.437Z,15.28
2019-03-27T13:20:00.518Z,15.15
2019-03-27T13:22:26.690Z,15.19
2019-03-27T13:24:53.025Z,15.19
2019-03-27T13:27:19.334Z,15.04
2019-03-27T13:29:45.640Z,14.96
2019-03-27T13:32:11.953Z,15.01
2019-03-27T13:34:38.262Z,14.82
2019-03-27T13:37:04.573Z,14.70
2019-03-27T13:39:30.876Z,14.61
2019-03-27T13:41:57.203Z,14.98
2019-03-27T13:44:36.305Z,14.89
2019-03-27T13:46:49.885Z,14.88
2019-03-27T13:49:16.126Z,15.07
2019-03-27T13:51:42.436Z,15.05
2019-03-27T13:54:08.745Z,14.82
2019-03-27T13:56:35.054Z,14.78
2019-03-27T13:59:01.364Z,14.80
2019-03-27T14:01:27.674Z,14.61
2019-03-27T14:03:53.991Z,14.55
2019-03-27T14:06:20.298Z,14.43
2019-03-27T14:08:46.643Z,14.53
2019-03-27T14:11:12.917Z,14.62
2019-03-27T14:13:39.226Z,14.70
2019-03-27T14:16:05.557Z,14.61
2019-03-27T14:18:31.877Z,14.68
2019-03-27T14:20:58.202Z,14.75
2019-03-27T14:23:24.504Z,14.70
2019-03-27T14:25:50.817Z,14.57
2019-03-27T14:28:17.120Z,14.61
2019-03-27T14:30:43.427Z,14.52
2019-03-27T14:33:09.756Z,14.42
2019-03-27T14:35:36.069Z,14.36
2019-03-27T14:38:02.392Z,14.31
2019-03-27T14:40:28.700Z,14.26
2019-03-27T14:42:55.007Z,14.34
2019-03-27T14:45:21.317Z,14.26
2019-03-27T14:47:47.644Z,14.11
2019-03-27T14:50:13.955Z,14.15
2019-03-27T14:52:40.272Z,14.13
2019-03-27T14:55:06.628Z,14.14
2019-03-27T14:57:32.935Z,14.07
2019-03-27T14:59:59.536Z,14.10
2019-03-27T15:02:25.841Z,14.06
2019-03-27T15:04:52.148Z,14.04
2019-03-27T15:07:18.480Z,13.97
2019-03-27T15:09:44.791Z,13.94
2019-03-27T15:12:11.104Z,13.88
2019-03-27T15:14:37.438Z,13.77
2019-03-27T15:17:03.737Z,13.80
2019-03-27T15:19:30.035Z,13.70
2019-03-27T15:21:56.373Z,13.71
2019-03-27T15:24:22.681Z,13.61
2019-03-27T15:26:48.988Z,13.57
2019-03-27T15:29:15.325Z,13.56
2019-03-27T15:31:41.652Z,13.48
2019-03-27T15:34:07.963Z,13.43
2019-03-27T15:36:34.481Z,13.42
2019-03-27T15:39:00.817Z,13.45
2019-03-27T15:41:27.123Z,13.42
2019-03-27T15:43:53.435Z,13.37
2019-03-27T15:46:19.812Z,13.25
2019-03-27T15:48:46.138Z,13.16
2019-03-27T15:51:12.453Z,13.14
2019-03-27T15:53:38.761Z,13.12
2019-03-27T15:56:05.084Z,13.07
2019-03-27T15:58:31.397Z,13.02
2019-03-27T16:00:57.705Z,12.98
2019-03-27T16:03:24.008Z,12.96
2019-03-27T16:05:50.324Z,12.87
2019-03-27T16:08:16.624Z,12.77
2019-03-27T16:10:43.012Z,12.67
2019-03-27T16:13:09.327Z,12.64
2019-03-27T16:15:37.221Z,12.57
2019-03-27T16:18:01.944Z,12.49
2019-03-27T16:20:28.248Z,12.41
2019-03-27T16:22:54.550Z,12.32
2019-03-27T16:25:20.863Z,12.27
2019-03-27T16:27:47.175Z,12.22
2019-03-27T16:30:16.880Z,12.23
2019-03-27T16:32:39.792Z,12.17
2019-03-27T16:35:06.100Z,12.08
2019-03-27T16:37:32.434Z,12.00
2019-03-27T16:39:58.750Z,11.95
2019-03-27T16:42:25.060Z,11.88
2019-03-27T16:44:51.375Z,11.80
2019-03-27T16:47:17.678Z,11.75
2019-03-27T16:49:43.989Z,11.71
2019-03-27T16:52:10.335Z,11.63
2019-03-27T16:54:36.651Z,11.56
2019-03-27T16:57:02.986Z,11.50
2019-03-27T16:59:29.345Z,11.43
2019-03-27T17:01:55.655Z,11.39
2019-03-27T17:04:21.959Z,11.29
2019-03-27T17:06:48.274Z,11.22
2019-03-27T17:09:14.582Z,11.17
2019-03-27T17:11:40.920Z,11.12
2019-03-27T17:14:07.297Z,11.05
2019-03-27T17:16:33.601Z,10.99
2019-03-27T17:18:59.909Z,10.95
2019-03-27T17:21:26.227Z,10.89
2019-03-27T17:23:52.575Z,10.82
2019-03-27T17:26:18.888Z,10.79
2019-03-27T17:28:45.203Z,10.70
2019-03-27T17:31:11.500Z,10.67
2019-03-27T17:33:37.813Z,10.61
2019-03-27T17:36:04.283Z,10.52
2019-03-27T17:38:30.447Z,10.52
2019-03-27T17:40:56.762Z,10.49
2019-03-27T17:43:23.079Z,10.47
2019-03-27T17:45:49.389Z,10.46
2019-03-27T17:48:15.714Z,10.42
2019-03-27T17:50:42.044Z,10.40
2019-03-27T17:53:08.351Z,10.35
2019-03-27T17:55:34.670Z,10.24
2019-03-27T17:58:00.972Z,10.15
2019-03-27T18:00:27.280Z,10.12
2019-03-27T18:02:53.626Z,10.06
2019-03-27T18:05:19.962Z,9.98
2019-03-27T18:07:46.282Z,9.93
2019-03-27T18:10:12.589Z,9.93
2019-03-27T18:12:38.919Z,9.99
2019-03-27T18:15:05.225Z,9.97
2019-03-27T18:17:31.552Z,9.89
2019-03-27T18:19:57.861Z,9.79
2019-03-27T18:22:24.202Z,9.81
2019-03-27T18:24:50.568Z,9.78
2019-03-27T18:27:16.896Z,9.71
2019-03-27T18:29:43.340Z,9.66
2019-03-27T18:32:09.736Z,9.60
2019-03-27T18:34:37.517Z,9.51
2019-03-27T18:37:03.944Z,9.46
2019-03-27T18:39:30.293Z,9.44
2019-03-27T18:41:56.725Z,9.48
2019-03-27T18:44:22.996Z,9.50
2019-03-27T18:46:49.306Z,9.44
2019-03-27T18:49:15.607Z,9.41
2019-03-27T18:51:41.918Z,9.32
2019-03-27T18:54:08.231Z,9.28
2019-03-27T18:56:34.572Z,9.24
2019-03-27T18:59:00.892Z,9.22
2019-03-27T19:01:27.195Z,9.20
2019-03-27T19:03:53.503Z,9.11
2019-03-27T19:06:19.817Z,9.02
2019-03-27T19:08:46.265Z,9.05
2019-03-27T19:11:12.534Z,9.00
2019-03-27T19:13:38.876Z,8.99
2019-03-27T19:16:05.174Z,8.96
2019-03-27T19:18:31.505Z,9.01
2019-03-27T19:20:57.810Z,8.98
2019-03-27T19:23:24.117Z,9.04
2019-03-27T19:25:50.427Z,9.00
2019-03-27T19:28:16.727Z,8.97
2019-03-27T19:30:43.065Z,8.98
2019-03-27T19:33:09.370Z,8.94
2019-03-27T19:35:35.702Z,8.94
2019-03-27T19:38:02.009Z,8.95
2019-03-27T19:40:28.319Z,8.91
2019-03-27T19:42:54.624Z,8.79
2019-03-27T19:45:20.954Z,8.85
2019-03-27T19:47:47.265Z,8.89
2019-03-27T19:50:13.600Z,8.79
2019-03-27T19:52:39.906Z,8.69
2019-03-27T19:55:06.239Z,8.69
2019-03-27T19:57:32.546Z,8.60
2019-03-27T19:59:58.863Z,8.51
2019-03-27T20:02:25.168Z,8.66
2019-03-27T20:04:51.484Z,8.77
2019-03-27T20:07:17.818Z,8.76
2019-03-27T20:09:44.123Z,8.61
2019-03-27T20:12:10.432Z,8.51
2019-03-27T20:14:36.743Z,8.45
2019-03-27T20:17:03.051Z,8.48
2019-03-27T20:19:29.350Z,8.49
2019-03-27T20:21:55.657Z,8.36
2019-03-27T20:24:21.958Z,8.28
2019-03-27T20:26:48.271Z,8.27
2019-03-27T20:29:14.576Z,8.31
2019-03-27T20:31:40.889Z,8.31
2019-03-27T20:34:07.197Z,8.33
2019-03-27T20:36:33.502Z,8.33
2019-03-27T20:38:59.801Z,8.28
2019-03-27T20:41:26.133Z,8.24
2019-03-27T20:43:52.438Z,8.20
2019-03-27T20:46:24.993Z,8.16
2019-03-27T20:48:45.047Z,8.10
2019-03-27T20:51:11.358Z,8.00
2019-03-27T20:53:37.663Z,7.96
2019-03-27T20:56:03.966Z,8.08
2019-03-27T20:58:30.281Z,8.26
2019-03-27T21:00:56.596Z,8.36
2019-03-27T21:03:22.922Z,8.29
2019-03-27T21:05:49.230Z,8.18
2019-03-27T21:08:15.531Z,8.18
2019-03-27T21:10:41.838Z,8.17
2019-03-27T21:13:08.147Z,8.20
2019-03-27T21:15:34.458Z,8.27
2019-03-27T21:18:00.767Z,8.24
2019-03-27T21:20:27.077Z,8.21
2019-03-27T21:22:53.393Z,8.15
2019-03-27T21:25:19.696Z,8.09
2019-03-27T21:27:46.025Z,7.97
2019-03-27T21:30:12.339Z,7.87
2019-03-27T21:32:38.651Z,7.86
2019-03-27T21:35:05.038Z,7.74
2019-03-27T21:37:31.344Z,7.50
2019-03-27T21:39:57.654Z,7.35
2019-03-27T21:42:23.955Z,7.21
2019-03-27T21:44:50.260Z,7.19
2019-03-27T21:47:16.576Z,7.15
2019-03-27T21:49:42.882Z,7.12
2019-03-27T21:52:09.183Z,7.12
2019-03-27T21:54:35.488Z,7.03
2019-03-27T21:57:01.793Z,7.05
2019-03-27T21:59:28.098Z,7.00
2019-03-27T22:01:54.409Z,6.89
2019-03-27T22:04:20.729Z,6.78
2019-03-27T22:06:47.043Z,6.72
2019-03-27T22:09:13.339Z,6.67
2019-03-27T22:11:39.725Z,6.66
2019-03-27T22:14:06.027Z,6.53
2019-03-27T22:16:32.340Z,6.39
2019-03-27T22:18:58.640Z,6.29
2019-03-27T22:21:24.942Z,6.34
2019-03-27T22:23:51.269Z,6.35
2019-03-27T22:26:17.585Z,6.26
2019-03-27T22:28:43.885Z,6.20
2019-03-27T22:31:10.186Z,6.11
2019-03-27T22:33:36.802Z,6.02
2019-03-27T22:36:03.109Z,5.96
2019-03-27T22:38:29.415Z,5.92
2019-03-27T22:40:55.715Z,5.88
2019-03-27T22:43:22.034Z,5.84
2019-03-27T22:45:48.350Z,5.72
2019-03-27T22:48:14.670Z,5.66
2019-03-27T22:50:40.977Z,5.65
2019-03-27T22:53:07.279Z,5.63
2019-03-27T22:55:33.590Z,5.66
2019-03-27T22:57:59.899Z,5.71
2019-03-27T23:00:26.203Z,5.71
2019-03-27T23:02:52.503Z,5.69
2019-03-27T23:05:19.132Z,5.68
2019-03-27T23:07:45.434Z,5.67
2019-03-27T23:10:11.741Z,5.66
2019-03-27T23:12:38.044Z,5.69
2019-03-27T23:15:04.468Z,5.69
2019-03-27T23:17:30.898Z,5.61
2019-03-27T23:19:57.196Z,5.67
2019-03-27T23:22:23.503Z,5.76
2019-03-27T23:24:52.604Z,5.74
2019-03-27T23:27:18.940Z,5.74
2019-03-27T23:29:45.272Z,5.71
2019-03-27T23:32:11.575Z,5.73
2019-03-27T23:34:37.878Z,5.74
2019-03-27T23:37:04.178Z,5.74
2019-03-27T23:39:30.488Z,5.75
2019-03-27T23:41:56.792Z,5.75
2019-03-27T23:44:23.103Z,5.77
2019-03-27T23:46:49.412Z,5.78
2019-03-27T23:49:15.752Z,5.78
2019-03-27T23:51:42.055Z,5.75
2019-03-27T23:54:08.375Z,5.73
2019-03-27T23:56:34.679Z,5.76
2019-03-27T23:59:00.983Z,5.77
